This is the latest recevied weather packets stored in our database for station/object N4OGP-WX. If no packets are shown the sender has not sent any weather packets the latest 10 day(s).
| Time | Temp. | Humidity | Pressure | Rain* | Wind** | Luminosity | Snow |
|---|---|---|---|---|---|---|---|
| 1777304026 | 26.67° C | 69% | 1015 hPa | 0 mm | - | - | - |
| 1777303966 | 23.89° C | 42% | 1020.4 hPa | 0 mm | - | - | - |
| 1777303906 | 26.67° C | 70% | 1015 hPa | 0 mm | - | - | - |
| 1777303846 | 23.89° C | 42% | 1020.4 hPa | 0 mm | - | - | - |
| 1777303756 | 26.67° C | 70% | 1015 hPa | 0 mm | - | - | - |
| 1777303666 | 23.89° C | 42% | 1020.4 hPa | 0 mm | - | - | - |
| 1777303606 | 23.89° C | 42% | 1020.4 hPa | 0 mm | - | - | - |
| 1777303546 | 26.11° C | 71% | 1015 hPa | 0 mm | - | - | - |
| 1777303486 | 23.89° C | 42% | 1020.4 hPa | 0 mm | - | - | - |
| 1777303396 | 26.11° C | 71% | 1014.9 hPa | 0 mm | - | - | - |
| 1777303336 | 26.11° C | 72% | 1014.9 hPa | 0 mm | - | - | - |
| 1777303276 | 26.11° C | 73% | 1014.9 hPa | 0 mm | - | - | - |
| 1777303216 | 23.89° C | 42% | 1020.4 hPa | 0 mm | - | - | - |
| 1777303126 | 23.89° C | 42% | 1020.4 hPa | 0 mm | - | - | - |
| 1777303036 | 26.11° C | 72% | 1014.9 hPa | 0 mm | - | - | - |
| 1777302976 | 23.89° C | 42% | 1020.4 hPa | 0 mm | - | - | - |
| 1777302916 | 26.67° C | 71% | 1014.9 hPa | 0 mm | - | - | - |
| 1777302826 | 26.67° C | 71% | 1014.9 hPa | 0 mm | - | - | - |
| 1777302766 | 23.89° C | 42% | 1020.4 hPa | 0 mm | - | - | - |
| 1777302706 | 23.89° C | 42% | 1020.4 hPa | 0 mm | - | - | - |
| 1777302646 | 23.89° C | 42% | 1020.4 hPa | 0 mm | - | - | - |
| 1777302586 | 27.22° C | 69% | 1015 hPa | 0 mm | - | - | - |
| 1777302526 | 23.89° C | 42% | 1020.4 hPa | 0 mm | - | - | - |
| 1777302436 | 27.22° C | 70% | 1015 hPa | 0 mm | - | - | - |
| 1777302376 | 23.89° C | 42% | 1020.4 hPa | 0 mm | - | - | - |
* Rain latest hour (hover to see other rain measurements)
** Current wind speed in m/s (hover to see current wind gust speed)